createdAt,value
2017-09-24T00:00:09.546Z,94.1
2017-09-24T00:01:08.339Z,94.2
2017-09-24T00:05:05.541Z,94.2
2017-09-24T00:09:01.982Z,94.2
2017-09-24T00:10:01.279Z,94.2
2017-09-24T00:12:00.086Z,94.3
2017-09-24T00:12:59.000Z,94.3
2017-09-24T00:13:58.320Z,94.3
2017-09-24T00:16:55.733Z,94.4
2017-09-24T00:18:53.915Z,94.4
2017-09-24T00:20:52.622Z,94.4
2017-09-24T00:22:50.695Z,94.5
2017-09-24T00:25:48.508Z,94.4
2017-09-24T00:26:47.679Z,94.5
2017-09-24T00:28:46.361Z,94.4
2017-09-24T00:29:45.409Z,94.4
2017-09-24T00:31:43.832Z,94.9
2017-09-24T00:32:42.874Z,94.8
2017-09-24T00:33:42.169Z,94.8
2017-09-24T00:34:41.338Z,94.8
2017-09-24T00:35:40.386Z,94.7
2017-09-24T00:36:39.935Z,94.7
2017-09-24T00:37:39.104Z,94.7
2017-09-24T00:38:38.143Z,94.7
2017-09-24T00:39:37.059Z,94.7
2017-09-24T00:40:36.352Z,94.7
2017-09-24T00:42:34.777Z,94.8
2017-09-24T00:43:34.072Z,94.8
2017-09-24T00:44:33.494Z,94.8
2017-09-24T00:45:32.279Z,94.8
2017-09-24T00:46:31.711Z,94.8
2017-09-24T00:48:30.267Z,94.9
2017-09-24T00:49:29.241Z,94.9
2017-09-24T00:50:28.664Z,94.9
2017-09-24T00:52:26.717Z,94.8
2017-09-24T00:53:26.014Z,94.9
2017-09-24T00:54:25.056Z,94.9
2017-09-24T00:55:24.350Z,95
2017-09-24T00:57:22.775Z,95
2017-09-24T00:58:22.075Z,95.3
2017-09-24T00:59:21.489Z,95.2
2017-09-24T01:00:20.401Z,95.3
2017-09-24T01:00:50.497Z,95.3
2017-09-24T01:01:20.984Z,95.3
2017-09-24T01:01:51.472Z,95.3
2017-09-24T01:03:18.315Z,95.4
2017-09-24T01:04:16.986Z,95.2
2017-09-24T01:05:16.533Z,95.1
2017-09-24T01:08:13.841Z,95.2
2017-09-24T01:09:13.387Z,95.1
2017-09-24T01:11:11.851Z,95.3
2017-09-24T01:11:42.332Z,95.3
2017-09-24T01:12:12.685Z,95.3
2017-09-24T01:12:43.049Z,95.3
2017-09-24T01:14:09.011Z,95.3
2017-09-24T01:15:08.433Z,95.3
2017-09-24T01:16:07.604Z,95.2
2017-09-24T01:17:07.147Z,95.2
2017-09-24T01:18:05.940Z,95.2
2017-09-24T01:19:05.231Z,95.2
2017-09-24T01:21:03.526Z,95.1
2017-09-24T01:23:02.081Z,95.1
2017-09-24T01:24:01.370Z,95.1
2017-09-24T01:25:59.547Z,95.1
2017-09-24T01:26:59.091Z,95.1
2017-09-24T01:28:57.521Z,95.1
2017-09-24T01:29:56.565Z,95
2017-09-24T01:30:55.604Z,95
2017-09-24T01:31:54.895Z,95
2017-09-24T01:32:54.188Z,95
2017-09-24T01:34:52.619Z,94.9
2017-09-24T01:35:51.783Z,94.9
2017-09-24T01:36:50.693Z,95
2017-09-24T01:37:49.862Z,95
2017-09-24T01:38:49.032Z,95.2
2017-09-24T01:39:48.706Z,95
2017-09-24T01:40:47.747Z,95
2017-09-24T01:41:46.783Z,95
2017-09-24T01:42:17.138Z,95
2017-09-24T01:42:47.488Z,94.9
2017-09-24T01:43:45.151Z,94.7
2017-09-24T01:44:44.569Z,94.7
2017-09-24T01:45:43.393Z,94.7
2017-09-24T01:49:40.092Z,94.7
2017-09-24T01:50:39.508Z,94.6
2017-09-24T01:51:38.685Z,94.6
2017-09-24T01:52:37.855Z,94.7
2017-09-24T01:53:08.327Z,94.7
2017-09-24T01:54:36.423Z,94.5
2017-09-24T01:55:06.772Z,94.5
2017-09-24T01:57:34.010Z,94.4
2017-09-24T01:58:33.303Z,94.2
2017-09-24T02:00:31.476Z,94.1
2017-09-24T02:03:29.169Z,94
2017-09-24T02:04:28.212Z,94
2017-09-24T02:06:26.886Z,94
2017-09-24T02:07:25.797Z,93.9
2017-09-24T02:08:25.085Z,93.9
2017-09-24T02:12:22.032Z,94.1
2017-09-24T02:13:20.824Z,94.1
2017-09-24T02:14:20.113Z,94.1
2017-09-24T02:15:19.529Z,94.1
2017-09-24T02:20:15.487Z,94.2
2017-09-24T02:21:14.652Z,94.2
2017-09-24T02:23:13.206Z,94.2
2017-09-24T02:24:11.993Z,94.2
2017-09-24T02:25:11.407Z,94.2
2017-09-24T02:26:10.698Z,94.2
2017-09-24T02:27:09.610Z,94.2
2017-09-24T02:32:05.690Z,94
2017-09-24T02:33:05.117Z,94.1
2017-09-24T02:35:03.299Z,93.8
2017-09-24T02:37:01.854Z,93.4
2017-09-24T02:40:58.696Z,93.6
2017-09-24T02:41:57.873Z,93.5
2017-09-24T02:42:56.792Z,93.4
2017-09-24T02:43:55.967Z,93.4
2017-09-24T02:44:55.272Z,93.5
2017-09-24T02:49:51.487Z,93.5
2017-09-24T02:51:49.556Z,93.4
2017-09-24T02:53:48.120Z,93.2
2017-09-24T02:57:44.576Z,93.6
2017-09-24T02:59:43.133Z,93.9
2017-09-24T03:03:39.835Z,93.6
2017-09-24T03:04:39.010Z,93.5
2017-09-24T03:06:37.829Z,93.5
2017-09-24T03:08:36.134Z,93.5
2017-09-24T03:09:35.052Z,93.8
2017-09-24T03:10:34.221Z,93.6
2017-09-24T03:11:04.705Z,93.6
2017-09-24T03:12:32.942Z,93.6
2017-09-24T03:14:30.998Z,93.7
2017-09-24T03:16:29.307Z,93.6
2017-09-24T03:17:28.608Z,93.5
2017-09-24T03:18:27.914Z,93.6
2017-09-24T03:20:26.096Z,93.7
2017-09-24T03:23:24.051Z,93.6
2017-09-24T03:24:23.102Z,93.5
2017-09-24T03:26:21.545Z,93.5
2017-09-24T03:27:20.720Z,93.5
2017-09-24T03:28:19.892Z,93.5
2017-09-24T03:29:19.185Z,93.5
2017-09-24T03:29:49.666Z,93.5
2017-09-24T03:33:15.918Z,93.3
2017-09-24T03:35:14.488Z,93.1
2017-09-24T03:36:13.291Z,93.1
2017-09-24T03:37:12.723Z,93.1
2017-09-24T03:38:11.894Z,93.2
2017-09-24T03:39:11.724Z,93
2017-09-24T03:40:10.048Z,93.1
2017-09-24T03:41:09.348Z,93.1
2017-09-24T03:42:08.681Z,93.1
2017-09-24T03:43:07.978Z,93.1
2017-09-24T03:44:06.895Z,93.3
2017-09-24T03:45:06.065Z,93.3
2017-09-24T03:46:05.239Z,93.4
2017-09-24T03:50:02.195Z,93.6
2017-09-24T03:52:00.258Z,93.6
2017-09-24T03:52:59.555Z,93.7
2017-09-24T03:54:57.861Z,93.6
2017-09-24T03:56:56.291Z,93.8
2017-09-24T03:57:55.464Z,93.8
2017-09-24T03:58:54.638Z,93.8
2017-09-24T03:59:53.815Z,93.8
2017-09-24T04:00:53.373Z,93.8
2017-09-24T04:01:52.681Z,93.8
2017-09-24T04:02:51.607Z,93.9
2017-09-24T04:03:50.656Z,93.9
2017-09-24T04:07:47.608Z,94
2017-09-24T04:08:46.789Z,94.5
2017-09-24T04:09:45.964Z,93.9
2017-09-24T04:11:44.397Z,93.4
2017-09-24T04:12:15.007Z,93.4
2017-09-24T04:15:40.884Z,93.5
2017-09-24T04:18:38.834Z,93.4
2017-09-24T04:20:37.018Z,93.6
2017-09-24T04:21:36.440Z,93.5
2017-09-24T04:22:07.128Z,93.5
2017-09-24T04:22:37.747Z,93.6
2017-09-24T04:23:08.368Z,93.6
2017-09-24T04:25:33.257Z,93.8
2017-09-24T04:28:30.827Z,93.9
2017-09-24T04:29:30.003Z,94
2017-09-24T04:32:27.442Z,94.1
2017-09-24T04:33:26.619Z,93.9
2017-09-24T04:36:24.187Z,93.8
2017-09-24T04:37:23.236Z,93.8
2017-09-24T04:39:21.797Z,93.5
2017-09-24T04:44:17.886Z,93.6
2017-09-24T04:45:16.930Z,93.8
2017-09-24T04:46:16.099Z,93.8
2017-09-24T04:48:14.780Z,93.8
2017-09-24T04:49:13.828Z,93.8
2017-09-24T04:50:12.876Z,93.8
2017-09-24T04:54:09.700Z,94
2017-09-24T04:56:07.891Z,93.8
2017-09-24T04:57:07.187Z,93.8
2017-09-24T04:58:06.488Z,93.9
2017-09-24T04:59:05.925Z,93.9
2017-09-24T05:01:04.108Z,94
2017-09-24T05:03:02.678Z,93.7
2017-09-24T05:06:00.251Z,93.8
2017-09-24T05:07:58.433Z,93.7
2017-09-24T05:08:57.860Z,93.4
2017-09-24T05:11:55.300Z,93.5
2017-09-24T05:12:54.477Z,93.4
2017-09-24T05:14:53.038Z,93.6
2017-09-24T05:15:52.211Z,93.2
2017-09-24T05:18:49.652Z,93.2
2017-09-24T05:19:48.705Z,93.2
2017-09-24T05:20:47.878Z,93.1
2017-09-24T05:22:46.450Z,93
2017-09-24T05:23:45.625Z,93.1
2017-09-24T05:24:44.676Z,93.2
2017-09-24T05:26:43.108Z,93.1
2017-09-24T05:27:42.532Z,93.1
2017-09-24T05:28:41.455Z,93.3
2017-09-24T05:29:40.630Z,93.3
2017-09-24T05:30:39.937Z,93.3
2017-09-24T05:31:39.370Z,93.4
2017-09-24T05:33:37.429Z,93.3
2017-09-24T05:34:36.610Z,93.4
2017-09-24T05:41:31.232Z,92.9
2017-09-24T05:46:27.318Z,93.3
2017-09-24T05:47:26.502Z,93.3
2017-09-24T05:48:25.801Z,93.3
2017-09-24T05:48:55.911Z,93.3
2017-09-24T05:50:23.770Z,93
2017-09-24T05:52:22.336Z,92.6
2017-09-24T05:56:19.042Z,92.7
2017-09-24T05:57:18.214Z,92.5
2017-09-24T05:58:17.642Z,92.6
2017-09-24T05:59:16.854Z,92.7
2017-09-24T06:00:15.901Z,92.8
2017-09-24T06:01:15.335Z,92.5
2017-09-24T06:02:14.128Z,92.5
2017-09-24T06:03:13.553Z,92.6
2017-09-24T06:04:12.599Z,92.7
2017-09-24T06:05:11.894Z,92.7
2017-09-24T06:06:11.190Z,92.4
2017-09-24T06:07:10.493Z,92.1
2017-09-24T06:08:09.288Z,92.2
2017-09-24T06:09:08.726Z,92.3
2017-09-24T06:11:07.038Z,92.1
2017-09-24T06:12:06.213Z,92.2
2017-09-24T06:14:04.782Z,92.3
2017-09-24T06:16:02.980Z,92.6
2017-09-24T06:18:01.665Z,91.9
2017-09-24T06:21:58.120Z,91.6
2017-09-24T06:22:57.295Z,91.5
2017-09-24T06:23:56.471Z,91.5
2017-09-24T06:25:55.028Z,91.4
2017-09-24T06:27:53.205Z,91.7
2017-09-24T06:32:49.296Z,91
2017-09-24T06:38:44.399Z,90
2017-09-24T06:41:42.343Z,90.1
2017-09-24T06:46:38.183Z,89.7
2017-09-24T06:53:32.665Z,90.1
2017-09-24T06:59:27.631Z,90.1
2017-09-24T07:02:25.452Z,90.2
2017-09-24T07:04:23.892Z,90.4
2017-09-24T07:05:23.066Z,90.5
2017-09-24T07:08:20.388Z,90.2
2017-09-24T07:08:50.910Z,90.2
2017-09-24T07:16:13.923Z,90.6
2017-09-24T07:22:09.530Z,90.7
2017-09-24T07:24:07.712Z,89.9
2017-09-24T07:26:06.146Z,90.2
2017-09-24T07:30:02.970Z,90.7
2017-09-24T07:33:00.786Z,90.9
2017-09-24T07:34:58.850Z,90.7
2017-09-24T07:36:57.408Z,91
2017-09-24T07:37:56.585Z,91.1
2017-09-24T07:39:55.147Z,91
2017-09-24T07:42:52.588Z,91.2
2017-09-24T07:43:51.759Z,90.7
2017-09-24T07:48:47.974Z,91.1
2017-09-24T07:49:46.902Z,91.1
2017-09-24T07:51:45.710Z,90.7
2017-09-24T07:52:44.504Z,90.2
2017-09-24T07:54:43.186Z,89.6
2017-09-24T07:55:42.234Z,89.1
2017-09-24T07:56:41.533Z,89.2
2017-09-24T07:57:40.583Z,88.8
2017-09-24T07:58:39.636Z,88.9
2017-09-24T08:01:37.583Z,89.4
2017-09-24T08:02:08.080Z,89.4
2017-09-24T08:03:36.082Z,89.4
2017-09-24T08:04:35.126Z,89.5
2017-09-24T08:05:34.139Z,88.6
2017-09-24T08:09:31.094Z,88.7
2017-09-24T08:11:29.284Z,89.2
2017-09-24T08:12:28.583Z,89.4
2017-09-24T08:13:28.020Z,86.2
2017-09-24T08:19:23.248Z,88.8
2017-09-24T08:20:22.300Z,89
2017-09-24T08:26:17.781Z,88.9
2017-09-24T08:28:15.968Z,89.5
2017-09-24T08:29:15.145Z,89.9
2017-09-24T08:31:13.581Z,90.1
2017-09-24T08:35:10.288Z,91
2017-09-24T08:39:07.127Z,91.2
2017-09-24T08:40:06.444Z,91.4
2017-09-24T08:41:05.997Z,91.3
2017-09-24T08:55:54.059Z,91.6
2017-09-24T08:56:53.231Z,91.6
2017-09-24T08:57:23.595Z,91.6
2017-09-24T09:00:50.097Z,91.6
2017-09-24T09:01:49.265Z,90.6
2017-09-24T09:02:48.565Z,91
2017-09-24T09:03:47.489Z,91.5
2017-09-24T09:04:46.924Z,91.6
2017-09-24T09:05:46.100Z,91.9
2017-09-24T09:07:44.159Z,92.2
2017-09-24T09:09:42.594Z,92.5
2017-09-24T09:12:40.538Z,92.5
2017-09-24T09:13:39.457Z,93
2017-09-24T09:15:38.273Z,91.5
2017-09-24T09:16:37.073Z,92.2
2017-09-24T09:17:36.369Z,92
2017-09-24T09:19:35.058Z,92.2
2017-09-24T09:20:34.362Z,92
2017-09-24T09:21:33.416Z,92.1
2017-09-24T09:23:31.850Z,92.4
2017-09-24T09:25:30.161Z,90.3
2017-09-24T09:26:29.582Z,90.7
2017-09-24T09:28:28.134Z,90.7
2017-09-24T09:29:27.438Z,90.2
2017-09-24T09:30:26.110Z,90
2017-09-24T09:31:25.286Z,90.3
2017-09-24T09:32:24.854Z,91.1
2017-09-24T09:33:24.160Z,90.4
2017-09-24T09:34:22.956Z,90.5
2017-09-24T09:35:22.131Z,90.7
2017-09-24T09:36:21.808Z,90.6
2017-09-24T09:38:20.241Z,90.4
2017-09-24T09:38:50.852Z,90.4
2017-09-24T09:39:21.462Z,89.8
2017-09-24T09:39:51.818Z,89.8
2017-09-24T09:42:17.045Z,89.7
2017-09-24T09:44:15.476Z,90.3
2017-09-24T09:50:10.950Z,91.6
2017-09-24T09:50:41.310Z,91.6
2017-09-24T09:52:09.289Z,91.6
2017-09-24T09:54:07.339Z,91.5
2017-09-24T09:55:06.886Z,91.6
2017-09-24T09:56:05.839Z,91.7
2017-09-24T09:57:05.012Z,92.1
2017-09-24T09:58:04.311Z,92.4
2017-09-24T09:59:03.480Z,92.4
2017-09-24T10:01:01.918Z,92.4
2017-09-24T10:02:01.102Z,92.6
2017-09-24T10:03:00.277Z,92.2
2017-09-24T10:04:58.961Z,92.6
2017-09-24T10:08:55.664Z,93.3
2017-09-24T10:09:55.084Z,92.9
2017-09-24T10:10:54.135Z,92.5
2017-09-24T10:11:53.198Z,92.9
2017-09-24T10:12:52.501Z,92.6
2017-09-24T10:13:51.548Z,93
2017-09-24T10:14:51.104Z,93
2017-09-24T10:16:49.419Z,92.6
2017-09-24T10:17:48.599Z,93.2
2017-09-24T10:18:47.826Z,93.3
2017-09-24T10:19:46.870Z,92.8
2017-09-24T10:20:46.428Z,93.4
2017-09-24T10:21:16.789Z,93.4
2017-09-24T10:23:43.916Z,93.8
2017-09-24T10:24:43.089Z,94
2017-09-24T10:25:42.518Z,94.2
2017-09-24T10:26:41.688Z,94.3
2017-09-24T10:27:40.608Z,94.3
2017-09-24T10:28:39.906Z,94.3
2017-09-24T10:29:38.953Z,94.5
2017-09-24T10:30:09.322Z,94.5
2017-09-24T10:30:39.562Z,94.6
2017-09-24T10:31:10.176Z,94.6
2017-09-24T10:34:35.424Z,94.9
2017-09-24T10:35:34.484Z,94.9
2017-09-24T10:36:33.789Z,95.2
2017-09-24T10:38:31.845Z,94.6
2017-09-24T10:39:31.391Z,94.9
2017-09-24T10:41:29.826Z,94.9
2017-09-24T10:43:28.384Z,95.3
2017-09-24T10:44:27.560Z,95.3
2017-09-24T10:45:26.732Z,95.5
2017-09-24T10:46:25.783Z,95.5
2017-09-24T10:47:25.078Z,95.4
2017-09-24T10:48:24.506Z,95.4
2017-09-24T10:49:23.480Z,95.4
2017-09-24T10:50:22.783Z,95.5
2017-09-24T10:52:20.844Z,95.8
2017-09-24T10:53:20.402Z,95.1
2017-09-24T10:54:19.707Z,95.2
2017-09-24T10:55:18.794Z,95.5
2017-09-24T10:56:17.969Z,95.7
2017-09-24T10:58:16.276Z,95.3
2017-09-24T10:59:15.324Z,94.9
2017-09-24T11:00:15.135Z,95.2
2017-09-24T11:03:12.583Z,94.7
2017-09-24T11:05:10.759Z,94.6
2017-09-24T11:08:08.580Z,94.8
2017-09-24T11:09:07.882Z,94.8
2017-09-24T11:10:07.057Z,94.7
2017-09-24T11:12:05.247Z,95.3
2017-09-24T11:13:04.680Z,95.3
2017-09-24T11:15:02.982Z,95.3
2017-09-24T11:17:01.542Z,95
2017-09-24T11:18:59.984Z,94.9
2017-09-24T11:19:59.051Z,94.8
2017-09-24T11:20:58.227Z,94.7
2017-09-24T11:21:57.525Z,94.7
2017-09-24T11:23:56.214Z,94.7
2017-09-24T11:27:52.797Z,94.7
2017-09-24T11:32:48.887Z,93.8
2017-09-24T11:34:47.193Z,94.2
2017-09-24T11:44:39.340Z,93.2
2017-09-24T11:45:38.507Z,93.8
2017-09-24T11:46:38.061Z,93.9
2017-09-24T11:54:31.814Z,93.1
2017-09-24T12:16:14.465Z,92.2
2017-09-24T12:22:09.697Z,93
2017-09-24T12:25:07.521Z,92.7
2017-09-24T12:33:01.522Z,92.9
2017-09-24T12:38:56.877Z,93
2017-09-24T13:11:31.020Z,91.2
2017-09-24T13:13:29.578Z,91.6
2017-09-24T13:35:12.610Z,91.4
2017-09-24T13:38:10.557Z,91.1
2017-09-24T13:39:09.603Z,91.5
2017-09-24T13:40:08.658Z,91.7
2017-09-24T13:41:08.217Z,91.4
2017-09-24T13:43:06.527Z,91.1
2017-09-24T14:31:28.984Z,90.5
2017-09-24T14:33:27.549Z,88
2017-09-24T15:00:07.143Z,89.4
2017-09-24T15:01:06.449Z,89.6
2017-09-24T15:03:04.892Z,90.1
2017-09-24T15:04:04.197Z,90.1
2017-09-24T15:06:02.389Z,89.6
2017-09-24T15:10:58.728Z,90.4
2017-09-24T15:16:54.209Z,91.3
2017-09-24T15:29:44.265Z,91.4
2017-09-24T15:30:43.312Z,91.7
2017-09-24T15:34:40.395Z,91.8
2017-09-24T15:35:39.567Z,91.9
2017-09-24T15:37:38.381Z,91.9
2017-09-24T15:38:08.613Z,91.9
2017-09-24T15:39:36.471Z,91.9
2017-09-24T15:44:32.816Z,92.2
2017-09-24T16:58:35.682Z,93.5
2017-09-24T16:59:34.858Z,93.6
2017-09-24T17:07:28.730Z,93.7
2017-09-24T17:08:28.033Z,93.7
2017-09-24T17:09:27.327Z,93.7
2017-09-24T17:10:26.757Z,93.8
2017-09-24T17:10:57.119Z,93.8
2017-09-24T17:12:24.976Z,93.8
2017-09-24T17:14:23.661Z,93.9
2017-09-24T17:17:20.986Z,94
2017-09-24T17:18:20.289Z,94
2017-09-24T17:19:19.778Z,94
2017-09-24T17:22:17.105Z,94
2017-09-24T17:25:15.184Z,94.2
2017-09-24T17:27:13.241Z,94.2
2017-09-24T17:28:12.789Z,94.2
2017-09-24T17:29:11.959Z,94.3
2017-09-24T17:34:08.182Z,94.2
2017-09-24T17:38:05.011Z,94.2
2017-09-24T17:39:04.309Z,94.2
2017-09-24T17:41:02.749Z,94.3
2017-09-24T17:44:59.704Z,94.4
2017-09-24T17:47:57.279Z,94.3
2017-09-24T17:48:56.580Z,94.3
2017-09-24T17:49:55.625Z,94.4
2017-09-24T17:51:54.186Z,94.3
2017-09-24T17:52:53.356Z,94.3
2017-09-24T17:53:52.907Z,94.3
2017-09-24T17:54:51.957Z,94.3
2017-09-24T17:55:51.262Z,94.3
2017-09-24T18:12:37.987Z,94.4
2017-09-24T18:15:35.938Z,94.5
2017-09-24T18:16:35.113Z,94.5
2017-09-24T18:18:33.547Z,94.5
2017-09-24T18:19:32.736Z,94.5
2017-09-24T18:20:32.071Z,94.5
2017-09-24T18:22:30.651Z,94.6
2017-09-24T18:23:29.828Z,94.6
2017-09-24T18:24:29.321Z,94.7
2017-09-24T18:25:28.503Z,94.6
2017-09-24T18:26:27.311Z,94.6
2017-09-24T18:27:26.620Z,94.6
2017-09-24T18:28:25.684Z,94.6
2017-09-24T18:30:24.375Z,94.6
2017-09-24T18:31:23.552Z,94.6
2017-09-24T18:32:22.725Z,94.6
2017-09-24T18:33:22.036Z,94.6
2017-09-24T18:34:21.217Z,94.6
2017-09-24T18:35:20.520Z,94.5
2017-09-24T18:36:19.574Z,94.6
2017-09-24T18:36:50.186Z,94.6
2017-09-24T18:37:20.424Z,94.5
2017-09-24T18:37:50.912Z,94.5
2017-09-24T18:38:21.540Z,94.5
2017-09-24T18:38:52.291Z,94.5
2017-09-24T18:41:16.165Z,94.5
2017-09-24T18:42:15.336Z,94.5
2017-09-24T18:45:13.106Z,94.6
2017-09-24T18:47:11.427Z,94.6
2017-09-24T18:47:41.663Z,94.6
2017-09-24T18:49:09.783Z,94.6
2017-09-24T18:49:39.899Z,94.6
2017-09-24T19:04:57.164Z,94.8
2017-09-24T19:05:56.841Z,94.7
2017-09-24T19:06:55.636Z,94.8
2017-09-24T19:13:50.637Z,94.7
2017-09-24T19:14:49.682Z,94.7
2017-09-24T19:30:37.264Z,94.9
2017-09-24T19:31:07.380Z,94.9
2017-09-24T19:32:35.622Z,94.9
2017-09-24T19:36:32.959Z,95
2017-09-24T19:39:30.530Z,95
2017-09-24T19:43:27.358Z,95.1
2017-09-24T19:44:26.657Z,95.1
2017-09-24T19:50:21.631Z,95
2017-09-24T19:51:21.068Z,95
2017-09-24T19:52:20.249Z,95
2017-09-24T19:53:19.551Z,95
2017-09-24T19:54:18.977Z,95
2017-09-24T19:55:18.286Z,95
2017-09-24T19:56:17.338Z,95
2017-09-24T19:58:16.023Z,95
2017-09-24T19:59:15.087Z,95
2017-09-24T20:00:14.139Z,95
2017-09-24T20:02:12.587Z,94.9
2017-09-24T20:03:11.633Z,94.9
2017-09-24T20:07:08.714Z,94.8
2017-09-24T20:09:07.270Z,94.9
2017-09-24T20:10:06.324Z,94.9
2017-09-24T20:11:05.626Z,94.9
2017-09-24T20:12:04.678Z,94.9
2017-09-24T20:13:04.232Z,94.8
2017-09-24T20:14:03.539Z,94.8
2017-09-24T20:17:00.994Z,94.8
2017-09-24T20:18:59.182Z,94.8
2017-09-24T20:20:57.581Z,94.7
2017-09-24T20:21:57.260Z,94.7
2017-09-24T20:23:55.226Z,94.7
2017-09-24T20:24:54.905Z,94.7
2017-09-24T20:25:53.850Z,94.7
2017-09-24T20:26:24.088Z,94.7
2017-09-24T20:26:54.465Z,94.7
2017-09-24T20:27:52.260Z,94.7
2017-09-24T20:28:51.824Z,94.7
2017-09-24T20:29:50.877Z,94.7
2017-09-24T20:30:50.053Z,94.7
2017-09-24T20:31:49.229Z,94.7
2017-09-24T20:32:48.783Z,94.8
2017-09-24T20:33:47.834Z,94.8
2017-09-24T20:34:46.882Z,94.8
2017-09-24T20:35:46.192Z,94.8
2017-09-24T20:37:44.504Z,94.9
2017-09-24T20:38:43.804Z,95
2017-09-24T20:39:43.000Z,95
2017-09-24T20:41:41.309Z,95.2
2017-09-24T20:42:40.869Z,95.2
2017-09-24T20:43:40.044Z,95.2
2017-09-24T20:44:39.217Z,95.3
2017-09-24T20:45:38.136Z,95.3
2017-09-24T20:46:37.437Z,95.4
2017-09-24T20:48:35.873Z,95.4
2017-09-24T20:49:35.042Z,95.5
2017-09-24T20:51:33.734Z,95.7
2017-09-24T20:52:32.536Z,95.8
2017-09-24T20:53:32.214Z,95.9
2017-09-24T20:54:31.135Z,95.9
2017-09-24T20:55:30.436Z,96
2017-09-24T20:57:28.753Z,96
2017-09-24T20:58:28.060Z,96.1
2017-09-24T20:59:27.483Z,96.2
2017-09-24T21:00:26.414Z,96.1
2017-09-24T21:01:25.588Z,96.2
2017-09-24T21:02:25.141Z,96.3
2017-09-24T21:03:24.321Z,96.2
2017-09-24T21:04:23.116Z,96.3
2017-09-24T21:07:21.195Z,96.4
2017-09-24T21:07:51.813Z,96.4
2017-09-24T21:09:19.801Z,96.4
2017-09-24T21:10:18.721Z,96.4
2017-09-24T21:11:17.763Z,96.4
2017-09-24T21:12:16.943Z,96.4
2017-09-24T21:13:16.243Z,96.4
2017-09-24T21:14:15.666Z,96.4
2017-09-24T21:15:14.837Z,96.5
2017-09-24T21:16:14.145Z,96.5
2017-09-24T21:17:13.316Z,96.6
2017-09-24T21:18:12.490Z,96.6
2017-09-24T21:18:43.242Z,96.6
2017-09-24T21:20:10.617Z,96.6
2017-09-24T21:21:10.044Z,96.6
2017-09-24T21:22:09.349Z,96.6
2017-09-24T21:23:08.520Z,96.7
2017-09-24T21:24:07.850Z,96.7
2017-09-24T21:25:07.031Z,96.7
2017-09-24T21:26:06.088Z,96.7
2017-09-24T21:27:05.390Z,96.7
2017-09-24T21:28:04.563Z,96.7
2017-09-24T21:29:03.991Z,96.7
2017-09-24T21:30:03.168Z,96.7
2017-09-24T21:32:01.750Z,96.7
2017-09-24T21:33:00.806Z,96.7
2017-09-24T21:34:00.239Z,96.7
2017-09-24T21:34:59.291Z,96.7
2017-09-24T21:35:58.725Z,96.7
2017-09-24T21:36:57.642Z,96.7
2017-09-24T21:37:56.569Z,96.7
2017-09-24T21:38:56.370Z,96.7
2017-09-24T21:39:55.160Z,96.7
2017-09-24T21:40:54.455Z,96.7
2017-09-24T21:41:53.876Z,96.6
2017-09-24T21:42:52.673Z,96.7
2017-09-24T21:43:52.348Z,96.6
2017-09-24T21:44:51.143Z,96.6
2017-09-24T21:45:50.565Z,96.6
2017-09-24T21:46:49.741Z,96.6
2017-09-24T21:47:48.793Z,96.6
2017-09-24T21:48:47.968Z,96.6
2017-09-24T21:49:47.401Z,96.6
2017-09-24T21:50:17.638Z,96.6
2017-09-24T21:51:46.000Z,96.6
2017-09-24T21:52:45.429Z,96.5
2017-09-24T21:53:44.477Z,96.5
2017-09-24T21:54:43.271Z,96.5
2017-09-24T21:55:42.949Z,96.5
2017-09-24T21:56:42.128Z,96.5
2017-09-24T21:57:40.925Z,96.4
2017-09-24T21:58:40.236Z,96.4
2017-09-24T21:59:39.792Z,96.3
2017-09-24T22:00:38.719Z,96.3
2017-09-24T22:01:09.328Z,96.3
2017-09-24T22:01:39.811Z,96.3
2017-09-24T22:02:37.223Z,96.3
2017-09-24T22:03:36.404Z,96.2
2017-09-24T22:04:35.708Z,96.2
2017-09-24T22:05:35.007Z,96.1
2017-09-24T22:06:34.432Z,96.1
2017-09-24T22:07:33.228Z,96.1
2017-09-24T22:08:32.398Z,96.1
2017-09-24T22:09:31.705Z,96.1
2017-09-24T22:10:30.888Z,96.1
2017-09-24T22:11:30.313Z,96
2017-09-24T22:12:29.239Z,96
2017-09-24T22:13:28.670Z,95.9
2017-09-24T22:14:27.976Z,95.8
2017-09-24T22:15:27.029Z,95.8
2017-09-24T22:16:26.325Z,95.7
2017-09-24T22:17:25.626Z,95.7
2017-09-24T22:18:24.672Z,95.7
2017-09-24T22:19:23.848Z,95.5
2017-09-24T22:20:23.187Z,95.6
2017-09-24T22:21:22.234Z,95.5
2017-09-24T22:22:21.662Z,95.4
2017-09-24T22:23:20.961Z,95.2
2017-09-24T22:24:20.258Z,95.3
2017-09-24T22:25:19.433Z,95.1
2017-09-24T22:26:18.360Z,95.1
2017-09-24T22:27:17.787Z,95
2017-09-24T22:28:17.084Z,94.8
2017-09-24T22:29:16.381Z,94.8
2017-09-24T22:30:15.434Z,94.7
2017-09-24T22:31:14.605Z,94.7
2017-09-24T22:32:13.777Z,94.6
2017-09-24T22:33:12.951Z,94.7
2017-09-24T22:34:12.127Z,94.7
2017-09-24T22:35:11.180Z,94.6
2017-09-24T22:36:10.729Z,94.7
2017-09-24T22:37:09.900Z,94.7
2017-09-24T22:38:08.873Z,94.7
2017-09-24T22:39:07.920Z,94.7
2017-09-24T22:40:07.597Z,94.7
2017-09-24T22:41:06.405Z,94.6
2017-09-24T22:43:05.091Z,94.6
2017-09-24T22:44:04.389Z,94.6
2017-09-24T22:45:03.187Z,94.6
2017-09-24T22:46:02.615Z,94.6
2017-09-24T22:47:01.911Z,94.7
2017-09-24T22:48:01.208Z,94.8
2017-09-24T22:49:00.256Z,94.8
2017-09-24T22:49:59.310Z,94.9
2017-09-24T22:50:58.483Z,94.9
2017-09-24T22:51:57.788Z,95
2017-09-24T22:52:57.212Z,95.1
2017-09-24T22:53:56.258Z,95.2
2017-09-24T22:54:55.427Z,95.3
2017-09-24T22:55:54.476Z,95.5
2017-09-24T22:56:53.652Z,95.5
2017-09-24T22:58:52.217Z,95.7
2017-09-24T22:59:51.260Z,95.7
2017-09-24T23:00:50.802Z,95.7
2017-09-24T23:01:50.105Z,95.8
2017-09-24T23:02:49.161Z,95.9
2017-09-24T23:03:48.214Z,96
2017-09-24T23:04:47.385Z,96.1
2017-09-24T23:05:46.564Z,96
2017-09-24T23:06:45.858Z,96.1
2017-09-24T23:07:45.160Z,96.1
2017-09-24T23:08:44.207Z,96.3
2017-09-24T23:09:43.503Z,96.3
2017-09-24T23:11:42.063Z,96.3
2017-09-24T23:12:41.110Z,96.3
2017-09-24T23:13:40.656Z,96.3
2017-09-24T23:14:39.325Z,96.3
2017-09-24T23:15:38.877Z,96.4
2017-09-24T23:16:38.053Z,96.4
2017-09-24T23:17:37.353Z,96.4
2017-09-24T23:18:36.537Z,96.4
2017-09-24T23:19:35.340Z,96.4
2017-09-24T23:20:35.019Z,96.4
2017-09-24T23:21:33.687Z,96.4
2017-09-24T23:22:33.113Z,96.4
2017-09-24T23:23:32.672Z,96.4
2017-09-24T23:24:31.723Z,96.4
2017-09-24T23:25:31.025Z,96.4
2017-09-24T23:26:30.079Z,96.4
2017-09-24T23:28:28.256Z,96.4
2017-09-24T23:29:27.553Z,96.4
2017-09-24T23:30:26.732Z,96.3
2017-09-24T23:31:25.782Z,96.3
2017-09-24T23:32:25.455Z,96.3
2017-09-24T23:33:24.379Z,96.3
2017-09-24T23:34:23.565Z,96.3
2017-09-24T23:35:22.615Z,96.3
2017-09-24T23:36:21.787Z,96.3
2017-09-24T23:37:21.208Z,96.3
2017-09-24T23:38:20.254Z,96.4
2017-09-24T23:39:19.426Z,96.4
2017-09-24T23:40:18.853Z,96.5
2017-09-24T23:41:17.784Z,96.5
2017-09-24T23:42:17.085Z,96.5
2017-09-24T23:43:16.257Z,96.5
2017-09-24T23:44:15.806Z,96.5
2017-09-24T23:45:14.866Z,96.5
2017-09-24T23:46:14.168Z,96.5
2017-09-24T23:47:12.972Z,96.5
2017-09-24T23:48:12.387Z,96.5
2017-09-24T23:49:11.310Z,96.5
2017-09-24T23:50:10.745Z,96.7
2017-09-24T23:51:09.907Z,96.8
2017-09-24T23:52:08.958Z,96.8
2017-09-24T23:53:08.266Z,96.8
2017-09-24T23:54:07.309Z,96.9
2017-09-24T23:55:06.614Z,96.9
2017-09-24T23:56:06.035Z,96.9
2017-09-24T23:57:05.092Z,96.9
2017-09-24T23:58:04.135Z,96.9
2017-09-24T23:59:03.428Z,96.9
